Le Roy, KS (66857)

6:26 PM CDT on August 28, 2014 (GMT -0500)
KS | Change Station
CLOSE
Current Station
Personal Weather Station
Location: Burlington, KS
Elevation: 1050 ft
Nearby Weather Stations

Elev 1050 ft 38.19 °N, 95.74 °W | Updated 5 seconds ago

Partly Cloudy
Partly Cloudy
92.1 °F
Feels Like 88 °F
N
3.8
Wind Variable Wind from SSE
Gusts 11.0 mph

Today
High -- | Low -- °F
--% Chance of Precip.
Yesterday
High -- | Low -- °F
Precip. -- in
6:48 AM 7:57 PM
Waxing Crescent, 10% visible
Pressure 29.85 in
Visibility 10.0 miles
Clouds Mostly Cloudy 7000 ft
Heat Index 88 °F
Dew Point 41 °F
Humidity 17%
Rainfall 0.00 in
Snow Depth Not available.
UV 1 out of 12
Pollen 8.90 out of 12
Air Quality Not available.
Flu Activity Not available.
METAR KCNU 282252Z AUTO 17011G20KT 10SM BKN070 34/15 A2989 RMK AO2 SLP108 T03390150

More Conditions Fewer Conditions

Pressure 29.85 in
Visibility 10.0 miles
Clouds Mostly Cloudy 7000 ft
Heat Index 88 °F
Dew Point 41 °F
Humidity 17%
Rainfall 0.00 in
Snow Depth Not available.
UV 1 out of 12
Pollen 8.90 out of 12
Air Quality Not available.
Flu Activity Not available.
METAR KCNU 282252Z AUTO 17011G20KT 10SM BKN070 34/15 A2989 RMK AO2 SLP108 T03390150

More Conditions Fewer Conditions

10-Day Weather Forecast

Almanac

Astronomy

Aug. 28, 2014 Rise Set
Actual Time 6:48 AM CDT 7:57 PM CDT
Civil Twilight 6:21 AM CDT 8:25 PM CDT
Nautical Twilight 5:49 AM CDT 8:57 PM CDT
Astronomical Twilight 5:15 AM CDT 9:31 PM CDT
Moon 9:38 AM CDT 9:26 PM CDT
Length of Visible Light 14h 03m
Length of Day
13h 09m
Tomorrow will be 2m 20s shorter.
Waxing Crescent, 10% of the Moon is Illuminated
Today
Waxing Crescent
Sep 2
First Quarter
Sep 8
Full
Sep 15
Last Quarter
Sep 24
New

Today's Extremes

State Highs State Lows

Community

WunderPhotos

Upload Photos

1,748,104 photos uploaded!

Nearby

Snow Depth

Station Depth Elevation
No new snow has been reported.

Earthquake Activity

City Distance Mag. Time & Date
Stillwater, Oklahoma 163 miles 3.1 10:44 AM CDT
2014-08-27
Perry, Oklahoma 166 miles 2.5 8:07 AM CDT
2014-08-26
Minimum magnitude displayed is 2.5.

Coastal Water Temperatures

Place Temperature
No Stations Reporting

Nearby Weather Stations